CDW2 weather

Baddeck (Crown Jewel) Airport
Baddeck, Nova Scotia, Canada

Public forecast

Using degrees Celsius for public forecast. Weather courtesy of forecast.io.

METAR (pilot weather report)

Closest report is Sydney / J.A. Douglas McCurdy Airport, 30.6 nm (56.7 km) E. Retrieved 2019/05/19 18:00 UTC (28 minutes ago):

CYQY 191800Z 35012G18KT 15SM FEW030 BKN220 08/03 A3002 RMK SC2CI4 SLP169

TAF (pilot weather forecast)

Closest forecast is Sydney / J.A. Douglas McCurdy Airport, 30.6 nm (56.7 km) E. Retrieved 2019/05/19 18:39 UTC (0 seconds ago):

TAF CYQY 191738Z 1918/2006 35012G22KT P6SM FEW030 BKN240 BECMG 2003/2005 VRB03KT RMK NXT FCST BY 200000Z